Search for airport 
image banner adimage banner adimage banner ad
image banner ad

IA10 - Mercy Health Center

Located in Dubuque, United States

ICAO - IA10, IATA -

Data provided by Airmate  

General information

Coordinates: N42°29'30" W90°40'33"
Elevation is 1050 feet MSL.
Magnetic variation is 01° East
View others Airports in Iowa

Operational data

Special qualification required
Current time UTC:
Current local time:
Weather at : KDBQ - Dubuque Rgnl ( 10 km )
METAR: KDBQ 181653Z 00000KT 10SM CLR 28/16 A2985 RMK AO2 SLP097 T02780161
TAF: KDBQ 181120Z 1812/1912 36007KT P6SM SCT120 FM182000 33005KT P6SM SCT250 FM190800 27005KT P6SM SCT250
View NOTAMs / SUP AIP / TFR affecting this airport [VIEW]
Communications frequencies: [VIEW]

Runways:

Airport contact information

Address: Dubuque United States

Satellite view of IA10